9CO0 weather

Police Headquarters Heliport
Denver, Colorado, United States

Public forecast

Using degrees Fahrenheit for public forecast. Weather courtesy of forecast.io.

METAR (pilot weather report)

Closest report is Buckley Air Force Base, 11.3 nm (20.9 km) E. Retrieved 2019/04/24 22:58 UTC (36 minutes ago):

KBKF 242258Z 02009KT 10SM SCT090 SCT150 21/01 A2993 RMK AO2A SLP084 T02120009

TAF (pilot weather forecast)

Forecast is more than 6 hours old.

Closest forecast is Buckley Air Force Base, 11.3 nm (20.9 km) E. Retrieved 2019/04/24 17:09 UTC (6 hours ago):

TAF TAF KBKF 241702Z 2417/2523 35009KT 9999 SCT120 BKN250 QNH2994INS BECMG 2501/2502 VRB06KT 9999 SCT080 BKN180 QNH2996INS BECMG 2510/2511 VRB06KT 9999 BKN015 BKN080 QNH3015INS BECMG 2516/2517 35009KT 9999 SCT020 BKN080 QNH3015INS TX20/2423Z TN06/2512Z